Newark, New Jersey
Current Conditions -  °F | °C
As of 6:51 PM on Thursday 27 Nov 2014 (Local Time) from KEWR Reporting Station
Overcast Overcast  
Wind Chill: 32°   Ceiling: 3500
Heat Index: 36°   Visibility: 10mi
Dew Point: 29°   Wind: 5mph
Humidity: 76%   Direction: 270°W
Pressure: 30.05"   Gusts: NA
Location:  40.73°N, 74.17°W
Report Text: KEWR 272351Z 27004KT 10SM SCT024 OVC035 02/M02 A3005 RMK AO2 SLP174 T00221017 10033 20017 51014 $
Loading
Personal Weather Stations






























Interactive Weather Map New forecast layout! Learn more

10-Day Weather Forecast

Advertisements
Track Severe Weather on mobile